Darlington, New Jersey
Current Conditions -  °F | °C
As of 3:51 PM on Saturday 25 Oct 2014 (Local Time) from KTEB Reporting Station
Clear Clear  
Wind Chill: 21°   Ceiling: Unl
Heat Index: 21°   Visibility: 10mi
Dew Point:   Wind: 14mph
Humidity: 38%   Direction: 260°W
Pressure: 29.66"   Gusts: NA
Location:  41.0594°N, 74.1457°W
Report Text: KTEB 251951Z 26012KT 10SM CLR 21/06 A2966 RMK AO2 SLP045 T02060056
Loading
Personal Weather Stations






























Interactive Weather Map
Tropical Storm Tracking
New forecast layout! Learn more

10-Day Weather Forecast

Advertisements
Track Severe Weather on mobile